Time;durP1;ratioP1;P1;durP2;ratioP2;P2;SDS_P1;SDS_P2;PMS_P1;PMS_P2;Temp;Humidity;BMP_temperature;BMP_pressure;BME280_temperature;BME280_humidity;BME280_pressure;Samples;Min_cycle;Max_cycle;Signal;HPM_P1;HPM_P2
2022/09/25 00:02:08;;;;;;;22.60;16.50;;;;;;;7.00;70.24;100054.62;130688;1265;108785;-74
2022/09/25 00:05:13;;;;;;;22.40;16.90;;;;;;;6.95;70.22;100060.02;130552;1265;108695;-73
2022/09/25 00:08:20;;;;;;;26.20;17.60;;;;;;;6.90;70.17;100056.44;130483;1265;108910;-73
2022/09/25 00:11:28;;;;;;;22.20;17.10;;;;;;;6.85;70.31;100055.39;130630;1268;108721;-73
2022/09/25 00:14:34;;;;;;;24.50;17.20;;;;;;;6.83;70.50;100053.80;130729;1265;108799;-74
2022/09/25 00:17:39;;;;;;;21.40;15.60;;;;;;;6.82;70.64;100046.31;130428;1268;108891;-76
2022/09/25 00:20:46;;;;;;;24.10;14.80;;;;;;;6.84;70.62;100042.39;130604;1268;107693;-74
2022/09/25 00:23:52;;;;;;;22.40;15.90;;;;;;;6.88;70.77;100040.27;130773;1268;108761;-73
2022/09/25 00:26:58;;;;;;;20.70;15.50;;;;;;;6.91;70.77;100039.65;130703;1268;107475;-73
2022/09/25 00:30:05;;;;;;;22.20;16.70;;;;;;;6.95;70.51;100038.77;130560;1265;108927;-73
2022/09/25 00:33:10;;;;;;;22.20;16.00;;;;;;;6.99;70.82;100034.84;130507;1265;108939;-74
2022/09/25 00:36:16;;;;;;;22.20;16.80;;;;;;;7.02;70.97;100032.54;130723;1267;109034;-74
2022/09/25 00:39:21;;;;;;;21.40;16.70;;;;;;;7.01;70.67;100030.08;130579;1265;107684;-74
2022/09/25 00:42:27;;;;;;;23.50;16.60;;;;;;;7.00;70.80;100030.88;130682;1265;108846;-74
2022/09/25 00:45:33;;;;;;;22.80;16.70;;;;;;;6.99;70.87;100026.60;130656;1266;108684;-72
2022/09/25 00:48:48;;;;;;;22.90;16.30;;;;;;;6.98;70.91;100024.39;130661;1267;108573;-74
2022/09/25 00:51:57;;;;;;;21.40;16.90;;;;;;;6.97;71.09;100018.47;130707;1265;108520;-74
2022/09/25 00:55:05;;;;;;;22.50;15.90;;;;;;;6.98;71.03;100015.73;130712;1265;107547;-74
2022/09/25 00:58:14;;;;;;;20.90;14.60;;;;;;;6.97;71.21;100012.81;130578;1266;108849;-72
2022/09/25 01:01:21;;;;;;;19.50;13.60;;;;;;;6.96;71.24;100013.92;130695;1266;108397;-72
2022/09/25 01:04:30;;;;;;;20.20;14.80;;;;;;;6.97;71.37;100014.23;130661;1265;107509;-71
2022/09/25 01:07:40;;;;;;;22.80;15.50;;;;;;;7.01;71.34;100014.16;130688;1265;109161;-71
2022/09/25 01:10:45;;;;;;;22.80;15.60;;;;;;;7.03;71.35;100017.71;130786;1268;108680;-74
2022/09/25 01:13:55;;;;;;;22.90;16.40;;;;;;;7.04;71.18;100013.92;130679;1265;108741;-74
2022/09/25 01:17:07;;;;;;;22.80;16.10;;;;;;;7.04;71.31;100015.15;130864;1265;108404;-74
2022/09/25 01:20:19;;;;;;;22.90;17.00;;;;;;;7.03;71.29;100014.55;130710;1266;108441;-73
2022/09/25 01:23:38;;;;;;;23.60;16.80;;;;;;;7.02;71.47;100012.65;130776;1265;107223;-73
2022/09/25 01:27:06;;;;;;;25.90;16.90;;;;;;;7.00;71.60;100015.89;130662;1268;108725;-73
2022/09/25 01:30:14;;;;;;;22.70;16.70;;;;;;;6.98;71.78;100014.77;130740;1265;108762;-73
2022/09/25 01:33:24;;;;;;;22.80;16.50;;;;;;;7.00;71.68;100013.07;130739;1265;108799;-73
2022/09/25 01:36:36;;;;;;;22.30;16.60;;;;;;;7.00;71.70;100008.45;130669;1268;108928;-73
2022/09/25 01:39:46;;;;;;;21.60;15.70;;;;;;;6.98;71.63;100005.43;130691;1268;108723;-73
2022/09/25 01:42:57;;;;;;;21.00;14.50;;;;;;;6.96;71.41;100008.42;130752;1266;108652;-74
2022/09/25 01:46:08;;;;;;;21.70;15.60;;;;;;;6.98;71.47;100004.73;130701;1266;108507;-73
2022/09/25 01:49:18;;;;;;;20.80;15.30;;;;;;;7.01;71.64;100006.25;130750;1266;109750;-72
2022/09/25 01:52:29;;;;;;;23.10;16.10;;;;;;;7.03;71.53;99998.99;130724;1266;109001;-73
2022/09/25 01:55:39;;;;;;;22.00;16.00;;;;;;;7.01;71.59;99998.98;130798;1267;107366;-72
2022/09/25 01:58:52;;;;;;;22.50;15.80;;;;;;;6.96;71.39;100001.35;130692;1266;108718;-73
2022/09/25 02:01:59;;;;;;;;;;;;;;;6.93;71.58;100000.45;130680;1266;107401;-74
2022/09/25 02:05:11;;;;;;;22.80;16.60;;;;;;;6.89;71.65;100000.02;130708;1267;109211;-74
2022/09/25 02:08:22;;;;;;;23.60;17.00;;;;;;;6.85;71.37;99997.44;130761;1265;109051;-73
2022/09/25 02:11:31;;;;;;;23.60;17.00;;;;;;;6.79;71.30;99995.61;130768;1265;108938;-73
2022/09/25 02:14:45;;;;;;;22.70;16.00;;;;;;;6.75;71.42;99997.59;130630;1268;109358;-73
2022/09/25 02:21:29;;;;;;;22.70;16.80;;;;;;;6.68;71.67;99992.67;130702;1265;108648;-74
2022/09/25 02:24:43;;;;;;;20.00;15.10;;;;;;;6.64;71.63;99994.23;130648;1265;107712;-74
2022/09/25 02:27:48;;;;;;;25.70;15.40;;;;;;;6.64;71.89;99998.33;130625;1265;108653;-73
2022/09/25 02:30:57;;;;;;;21.20;14.60;;;;;;;6.66;71.65;99996.02;130493;1265;107108;-74
2022/09/25 02:34:03;;;;;;;22.50;15.90;;;;;;;6.71;72.11;99988.02;130770;1265;108679;-74
2022/09/25 02:37:13;;;;;;;21.80;16.90;;;;;;;6.77;72.05;99986.41;130625;1265;107700;-74
2022/09/25 02:40:20;;;;;;;21.60;16.00;;;;;;;6.84;72.10;99984.27;130700;1265;107602;-74
2022/09/25 02:43:41;;;;;;;26.50;17.10;;;;;;;6.87;71.90;99983.96;130684;1265;108320;-72
2022/09/25 02:46:58;;;;;;;23.40;17.10;;;;;;;6.86;72.19;99986.70;130667;1265;108760;-72
2022/09/25 02:50:10;;;;;;;24.30;16.70;;;;;;;6.83;71.96;99982.36;130651;1267;109164;-72
2022/09/25 02:53:20;;;;;;;22.70;16.30;;;;;;;6.78;71.93;99980.30;130717;1268;108647;-73
2022/09/25 02:56:32;;;;;;;24.50;17.30;;;;;;;6.73;71.67;99979.40;130795;1265;108963;-75
2022/09/25 02:59:39;;;;;;;;;;;;;;;6.65;71.70;99977.87;130738;1265;108692;-73
2022/09/25 03:02:45;;;;;;;21.90;16.20;;;;;;;6.59;71.64;99975.46;130651;1265;108842;-75
2022/09/25 03:05:52;;;;;;;23.30;16.90;;;;;;;6.54;71.79;99972.36;130688;1268;108529;-73
2022/09/25 03:08:59;;;;;;;24.50;17.50;;;;;;;6.46;71.84;99970.41;130667;1268;107538;-72
2022/09/25 03:12:05;;;;;;;22.90;15.40;;;;;;;6.37;71.73;99968.70;130824;1268;108774;-72
2022/09/25 03:15:12;;;;;;;20.00;14.80;;;;;;;6.33;71.90;99968.41;130675;1268;108924;-73
2022/09/25 03:18:17;;;;;;;22.40;14.60;;;;;;;6.27;71.60;99968.80;130694;1268;108864;-72
2022/09/25 03:21:23;;;;;;;22.30;16.00;;;;;;;6.28;71.90;99968.94;130703;1267;109012;-73
2022/09/25 03:24:28;;;;;;;22.60;16.20;;;;;;;6.27;71.70;99967.05;130694;1265;108002;-74
2022/09/25 03:27:34;;;;;;;22.50;16.20;;;;;;;6.26;71.69;99968.23;130650;1266;108942;-73
2022/09/25 03:30:40;;;;;;;22.70;16.60;;;;;;;6.22;71.69;99966.29;130718;1268;108904;-73
2022/09/25 03:33:46;;;;;;;22.80;17.00;;;;;;;6.19;71.72;99963.88;130820;1265;108637;-76
2022/09/25 03:36:51;;;;;;;21.60;16.20;;;;;;;6.14;71.62;99972.25;130553;1265;108599;-75
2022/09/25 03:39:57;;;;;;;23.10;16.10;;;;;;;6.09;71.63;99970.93;130651;1268;108774;-74
2022/09/25 03:43:03;;;;;;;25.00;18.00;;;;;;;6.01;71.66;99975.83;130775;1268;107997;-74
2022/09/25 03:46:10;;;;;;;35.90;23.00;;;;;;;5.97;71.59;99967.20;130479;1268;108768;-74
2022/09/25 03:49:16;;;;;;;85.50;47.50;;;;;;;5.93;71.52;99968.59;130802;1266;109908;-74
2022/09/25 03:52:21;;;;;;;41.70;24.80;;;;;;;5.88;71.54;99965.58;130769;1265;108550;-75
2022/09/25 03:55:27;;;;;;;32.50;22.20;;;;;;;5.82;71.57;99966.85;130748;1265;106865;-75
2022/09/25 03:58:32;;;;;;;38.10;24.90;;;;;;;5.76;71.57;99964.19;130777;1265;109244;-73
2022/09/25 04:01:37;;;;;;;35.60;21.70;;;;;;;5.70;71.64;99963.60;131032;1265;108872;-72
2022/09/25 04:04:44;;;;;;;35.60;20.50;;;;;;;5.68;71.61;99966.42;130658;1265;108279;-75
2022/09/25 04:07:50;;;;;;;26.10;17.00;;;;;;;5.67;71.58;99968.58;130862;1265;108856;-74
2022/09/25 04:10:58;;;;;;;24.70;16.80;;;;;;;5.68;71.70;99967.31;130801;1265;108750;-74
2022/09/25 04:14:03;;;;;;;25.60;16.90;;;;;;;5.68;71.42;99966.05;130404;1267;109367;-73
2022/09/25 04:17:09;;;;;;;23.80;16.20;;;;;;;5.68;71.55;99969.06;130900;1268;108726;-72
2022/09/25 04:20:15;;;;;;;22.90;16.50;;;;;;;5.66;71.46;99969.20;130795;1265;108672;-71
2022/09/25 04:23:20;;;;;;;24.60;15.90;;;;;;;5.67;71.62;99967.23;130794;1265;108798;-74
2022/09/25 04:26:25;;;;;;;24.20;16.40;;;;;;;5.65;71.46;99969.69;130710;1266;108833;-74
2022/09/25 04:29:31;;;;;;;22.10;16.40;;;;;;;5.62;71.56;99974.54;130648;1266;108841;-74
2022/09/25 04:36:00;;;;;;;25.20;17.00;;;;;;;5.50;71.60;99969.80;130601;1268;108678;-73
2022/09/25 04:39:05;;;;;;;23.90;16.80;;;;;;;5.47;71.59;99971.33;130729;1265;108713;-74
2022/09/25 04:42:10;;;;;;;25.30;17.50;;;;;;;5.43;71.49;99970.10;130708;1268;108753;-74
2022/09/25 04:45:16;;;;;;;24.60;17.10;;;;;;;5.38;71.64;99968.89;130756;1268;108811;-73
2022/09/25 04:48:21;;;;;;;22.90;16.10;;;;;;;5.35;71.68;99969.73;130773;1268;109769;-73
2022/09/25 04:51:27;;;;;;;23.90;14.90;;;;;;;5.34;71.59;99969.78;130591;1268;107648;-73
2022/09/25 04:54:32;;;;;;;23.20;15.90;;;;;;;5.36;71.62;99964.14;130723;1265;108650;-74
2022/09/25 04:57:38;;;;;;;22.40;14.70;;;;;;;5.38;71.80;99967.30;130645;1265;108731;-73
2022/09/25 05:00:44;;;;;;;23.00;16.20;;;;;;;5.44;71.78;99968.58;130632;1265;108656;-73
2022/09/25 05:03:52;;;;;;;24.30;16.80;;;;;;;5.51;71.71;99973.13;130797;1267;108731;-73
2022/09/25 05:06:57;;;;;;;23.80;17.30;;;;;;;5.57;71.67;99972.29;130661;1265;108718;-73
2022/09/25 05:10:03;;;;;;;24.30;17.20;;;;;;;5.62;71.73;99971.16;130630;1265;108753;-74
2022/09/25 05:13:10;;;;;;;21.90;15.60;;;;;;;5.66;71.61;99976.66;130469;1268;108707;-74
2022/09/25 05:16:16;;;;;;;24.10;15.90;;;;;;;5.69;71.78;99978.35;130627;1265;108607;-74
2022/09/25 05:19:21;;;;;;;23.20;16.60;;;;;;;5.73;71.74;99978.17;130661;1265;108870;-74
2022/09/25 05:22:26;;;;;;;21.00;15.70;;;;;;;5.75;71.89;99981.68;130726;1265;108700;-74
2022/09/25 05:25:32;;;;;;;22.40;15.80;;;;;;;5.77;71.98;99983.30;130590;1268;108701;-75
2022/09/25 05:28:37;;;;;;;23.90;16.50;;;;;;;5.82;72.05;99987.70;130755;1265;108583;-72
2022/09/25 05:31:45;;;;;;;23.60;17.10;;;;;;;5.85;72.14;99983.67;130838;1265;107664;-74
2022/09/25 05:34:51;;;;;;;25.80;15.90;;;;;;;5.87;72.29;99980.31;130612;1265;107757;-73
2022/09/25 05:37:57;;;;;;;24.90;15.10;;;;;;;5.94;72.27;99977.49;130612;1268;108743;-74
2022/09/25 05:41:05;;;;;;;21.00;14.40;;;;;;;6.04;72.41;99977.16;130742;1265;109227;-75
2022/09/25 05:44:10;;;;;;;22.90;16.10;;;;;;;6.18;72.28;99980.77;130713;1265;108710;-73
2022/09/25 05:47:16;;;;;;;26.70;18.40;;;;;;;6.32;72.47;99977.14;130642;1265;109971;-75
2022/09/25 05:50:27;;;;;;;25.30;17.60;;;;;;;6.47;72.52;99977.95;130455;1265;108730;-75
2022/09/25 05:53:33;;;;;;;25.50;17.40;;;;;;;6.59;72.69;99966.27;130523;1265;108986;-74
2022/09/25 05:56:38;;;;;;;24.80;17.90;;;;;;;6.70;72.67;99968.66;130596;1265;109743;-74
2022/09/25 05:59:44;;;;;;;23.10;17.50;;;;;;;6.80;72.78;99970.99;130700;1267;108874;-73
2022/09/25 06:02:53;;;;;;;30.40;20.40;;;;;;;6.88;73.04;99974.98;130924;1265;107586;-74
2022/09/25 06:05:59;;;;;;;25.40;18.60;;;;;;;6.97;73.35;99979.52;130621;1265;108862;-72
2022/09/25 06:09:05;;;;;;;26.50;17.40;;;;;;;7.06;73.58;99978.00;130695;1265;108897;-74
2022/09/25 06:12:10;;;;;;;32.70;21.60;;;;;;;7.18;73.70;99972.58;130845;1265;109037;-73
2022/09/25 06:15:16;;;;;;;30.90;18.20;;;;;;;7.30;73.93;99976.41;130735;1265;107020;-73
2022/09/25 06:18:23;;;;;;;33.60;21.00;;;;;;;7.44;74.18;99975.46;130655;1265;108627;-73
2022/09/25 06:21:28;;;;;;;35.40;24.40;;;;;;;7.61;74.73;99969.92;130733;1265;108774;-74
2022/09/25 06:24:34;;;;;;;37.20;25.60;;;;;;;7.78;75.13;99966.85;130987;1265;108855;-75
2022/09/25 06:27:39;;;;;;;35.90;24.80;;;;;;;7.95;75.08;99962.49;130748;1265;108723;-74
2022/09/25 06:30:46;;;;;;;34.20;25.10;;;;;;;8.10;75.30;99961.25;130812;1265;108112;-73
2022/09/25 06:33:53;;;;;;;33.00;21.60;;;;;;;8.22;75.25;99956.38;130739;1265;108814;-74
2022/09/25 06:36:59;;;;;;;29.80;20.50;;;;;;;8.36;75.39;99958.31;130605;1268;107665;-73
2022/09/25 06:40:06;;;;;;;30.80;21.60;;;;;;;8.51;75.60;99962.41;130723;1266;108682;-73
2022/09/25 06:43:14;;;;;;;28.70;21.10;;;;;;;8.67;75.56;99962.45;130629;1268;108818;-74
2022/09/25 06:46:19;;;;;;;32.10;22.30;;;;;;;8.85;75.54;99954.17;130593;1268;108818;-72
2022/09/25 06:49:25;;;;;;;30.90;22.50;;;;;;;9.00;75.39;99950.02;130757;1268;108716;-74
2022/09/25 06:52:31;;;;;;;32.40;23.00;;;;;;;9.14;75.59;99951.32;130643;1268;108853;-74
2022/09/25 06:55:37;;;;;;;33.20;24.10;;;;;;;9.26;75.59;99952.80;130933;1267;107422;-74
2022/09/25 06:58:42;;;;;;;30.20;21.80;;;;;;;9.36;75.70;99949.84;130479;1268;108965;-75
2022/09/25 07:01:48;;;;;;;26.40;18.50;;;;;;;9.48;75.83;99947.07;130691;1266;108673;-75
2022/09/25 07:04:55;;;;;;;23.60;16.00;;;;;;;9.59;75.83;99946.30;130595;1268;109048;-76
2022/09/25 07:08:01;;;;;;;27.30;19.70;;;;;;;9.73;75.91;99944.40;130573;1268;108690;-75
2022/09/25 07:11:07;;;;;;;25.30;18.70;;;;;;;9.89;76.19;99943.09;130654;1265;108775;-76
2022/09/25 07:14:13;;;;;;;24.90;18.90;;;;;;;10.06;76.24;99941.90;130717;1267;109019;-69
2022/09/25 07:17:18;;;;;;;26.30;19.90;;;;;;;10.21;75.74;99939.81;130470;1267;108732;-72
2022/09/25 07:20:23;;;;;;;27.60;20.40;;;;;;;10.31;75.96;99939.95;130664;1268;108679;-72
2022/09/25 07:23:30;;;;;;;27.40;21.40;;;;;;;10.37;76.12;99945.20;130745;1267;107505;-72
2022/09/25 07:26:35;;;;;;;29.30;21.00;;;;;;;10.45;76.16;99951.61;132969;1267;109971;-74
2022/09/25 07:29:40;;;;;;;28.30;19.40;;;;;;;10.55;76.28;99958.21;131670;1268;108754;-76
2022/09/25 07:32:46;;;;;;;23.80;17.70;;;;;;;10.66;76.38;99958.55;130653;1268;107650;-81
2022/09/25 07:35:51;;;;;;;27.20;19.20;;;;;;;10.76;76.20;99956.75;130572;1268;109101;-71
2022/09/25 07:38:57;;;;;;;23.70;18.50;;;;;;;10.86;76.48;99958.02;130591;1268;109006;-71
2022/09/25 07:42:02;;;;;;;27.90;19.80;;;;;;;11.00;76.25;99958.80;130738;1267;108992;-76
2022/09/25 07:45:10;;;;;;;28.60;21.30;;;;;;;11.16;76.37;99960.34;130451;1267;108729;-75
2022/09/25 07:48:15;;;;;;;28.00;20.80;;;;;;;11.33;76.24;99958.52;130565;1266;108703;-79
2022/09/25 07:51:21;;;;;;;31.60;23.10;;;;;;;11.46;76.47;99952.45;130690;1267;108729;-76
2022/09/25 07:54:26;;;;;;;30.70;22.90;;;;;;;11.51;75.95;99946.24;130670;1268;108691;-78
2022/09/25 07:57:33;;;;;;;35.50;24.50;;;;;;;11.56;76.30;99942.71;130663;1267;107700;-79
2022/09/25 08:00:39;;;;;;;28.00;19.70;;;;;;;11.65;76.42;99943.81;130611;1266;108657;-81
2022/09/25 08:03:45;;;;;;;26.20;19.30;;;;;;;11.79;76.01;99939.94;130758;1267;106929;-91
2022/09/25 08:06:50;;;;;;;23.30;18.10;;;;;;;11.94;76.11;99940.36;130665;1268;108651;-81
2022/09/25 08:09:56;;;;;;;23.70;18.10;;;;;;;12.06;76.04;99937.77;130788;1268;108952;-77
2022/09/25 08:13:03;;;;;;;23.00;18.60;;;;;;;12.13;75.92;99933.02;130563;1268;108677;-80
2022/09/25 08:16:12;;;;;;;23.30;18.10;;;;;;;12.23;76.16;99931.05;131035;1266;108754;-81
2022/09/25 08:19:17;;;;;;;26.40;19.10;;;;;;;12.34;75.89;99928.36;130904;1267;108750;-79
2022/09/25 08:22:23;;;;;;;26.70;21.70;;;;;;;12.44;75.81;99929.06;130900;1266;106597;-81
2022/09/25 08:25:28;;;;;;;24.80;20.20;;;;;;;12.51;75.59;99923.12;131023;1268;107752;-83
2022/09/25 08:28:34;;;;;;;25.80;19.10;;;;;;;12.59;75.70;99924.19;130641;1267;108984;-82
2022/09/25 08:31:39;;;;;;;23.00;17.40;;;;;;;12.66;75.65;99922.85;130895;1267;108872;-81
2022/09/25 08:34:45;;;;;;;23.40;16.50;;;;;;;12.73;75.49;99921.91;130562;1267;189424;-82
2022/09/25 08:37:50;;;;;;;22.30;18.60;;;;;;;12.82;75.48;99913.13;130710;1268;108845;-82
2022/09/25 08:40:59;;;;;;;27.70;19.00;;;;;;;12.95;75.46;99911.67;130866;1267;108989;-81
2022/09/25 08:44:11;;;;;;;24.90;18.80;;;;;;;13.12;75.44;99911.79;130745;1268;108657;-81
2022/09/25 08:50:44;;;;;;;22.40;18.10;;;;;;;13.43;75.10;99904.67;131158;1267;108707;-82
2022/09/25 08:53:50;;;;;;;22.10;16.10;;;;;;;13.55;74.84;99904.40;130968;1268;108739;-87
2022/09/25 08:57:00;;;;;;;18.70;14.60;;;;;;;13.66;74.46;99905.20;130988;1266;108951;-80
2022/09/25 09:00:13;;;;;;;17.70;14.10;;;;;;;13.73;74.33;99898.63;131017;1267;108782;-83
2022/09/25 09:03:19;;;;;;;19.60;14.10;;;;;;;13.85;74.47;99897.41;130783;1266;107674;-82
2022/09/25 09:06:26;;;;;;;17.30;13.50;;;;;;;13.96;74.46;99893.08;130934;1268;109416;-83
2022/09/25 09:09:39;;;;;;;14.90;12.00;;;;;;;14.08;74.66;99886.23;131055;1266;108533;-83
2022/09/25 09:12:50;;;;;;;12.80;9.90;;;;;;;14.21;74.36;99884.41;130832;1268;108685;-82
2022/09/25 09:16:02;;;;;;;15.90;12.20;;;;;;;14.29;74.02;99881.10;130908;1266;108671;-81
2022/09/25 09:19:10;;;;;;;16.00;12.20;;;;;;;14.39;73.91;99881.14;130845;1266;108456;-81
2022/09/25 09:22:21;;;;;;;14.90;11.70;;;;;;;14.49;73.94;99880.86;130765;1267;108724;-81
2022/09/25 09:25:36;;;;;;;14.30;11.60;;;;;;;14.57;73.33;99873.20;130986;1267;108523;-81
2022/09/25 09:29:03;;;;;;;13.40;11.10;;;;;;;14.61;73.51;99871.70;130804;1266;108642;-80
2022/09/25 09:32:24;;;;;;;10.90;9.20;;;;;;;14.65;72.99;99872.20;130913;1267;109100;-81
2022/09/25 09:35:44;;;;;;;13.70;9.90;;;;;;;14.69;72.88;99866.51;130759;1267;108625;-80
2022/09/25 09:38:58;;;;;;;13.40;10.40;;;;;;;14.74;72.75;99856.10;130813;1267;108616;-81
2022/09/25 09:42:17;;;;;;;11.60;9.90;;;;;;;14.78;72.48;99855.20;130738;1268;109252;-81
2022/09/25 09:45:32;;;;;;;12.40;10.00;;;;;;;14.82;72.29;99851.55;130848;1266;108869;-79
2022/09/25 09:48:43;;;;;;;14.70;11.20;;;;;;;14.85;72.14;99845.96;130968;1267;108746;-81
2022/09/25 09:51:57;;;;;;;10.30;9.20;;;;;;;14.87;71.69;99845.36;130886;1265;108693;-80
2022/09/25 09:55:19;;;;;;;12.30;9.40;;;;;;;14.89;71.62;99839.69;130904;1266;108831;-79
2022/09/25 09:58:31;;;;;;;18.20;13.80;;;;;;;14.92;71.56;99837.77;130834;1266;107719;-81
2022/09/25 10:01:39;;;;;;;11.30;9.10;;;;;;;14.94;71.48;99836.63;130927;1267;107703;-83
2022/09/25 10:04:47;;;;;;;10.40;8.90;;;;;;;14.98;71.42;99831.25;130712;1267;108602;-75
2022/09/25 10:07:54;;;;;;;10.50;8.80;;;;;;;15.01;71.03;99827.63;130793;1266;108727;-82
2022/09/25 10:10:59;;;;;;;9.20;7.60;;;;;;;15.03;70.75;99822.17;130981;1266;108480;-81
2022/09/25 10:14:05;;;;;;;8.90;7.60;;;;;;;15.07;70.67;99820.84;130776;1267;108681;-79
2022/09/25 10:17:12;;;;;;;15.90;11.00;;;;;;;15.09;70.20;99816.95;130651;1267;108788;-80
2022/09/25 10:20:22;;;;;;;10.20;7.80;;;;;;;15.09;70.26;99813.02;131042;1267;108894;-80
2022/09/25 10:23:35;;;;;;;9.50;7.20;;;;;;;15.12;70.13;99814.61;130910;1266;107572;-80
2022/09/25 10:26:41;;;;;;;7.90;7.10;;;;;;;15.15;69.91;99813.43;130875;1267;108727;-79
2022/09/25 10:29:46;;;;;;;9.80;8.10;;;;;;;15.19;69.92;99814.70;130778;1267;110366;-77
2022/09/25 10:32:59;;;;;;;10.60;8.20;;;;;;;15.23;69.61;99809.90;130802;1268;110244;-77
2022/09/25 10:36:05;;;;;;;22.60;12.90;;;;;;;15.25;69.44;99806.52;130795;1266;111069;-77
2022/09/25 10:42:43;;;;;;;14.80;10.30;;;;;;;15.35;69.52;99797.25;126396;1310;636221;-77
2022/09/25 10:45:51;;;;;;;11.80;9.30;;;;;;;15.34;69.18;99798.95;129672;1280;109245;-78
2022/09/25 10:52:58;;;;;;;10.40;8.30;;;;;;;15.37;69.01;99783.70;129603;1280;108906;-80
2022/09/25 10:56:08;;;;;;;10.10;8.30;;;;;;;15.43;68.68;99786.23;129730;1278;210847;-80
2022/09/25 10:59:19;;;;;;;9.10;7.50;;;;;;;15.44;68.51;99781.89;130080;1278;107713;-81
2022/09/25 11:02:37;;;;;;;8.40;7.40;;;;;;;15.51;68.45;99778.17;129881;1277;108971;-81
2022/09/25 11:05:53;;;;;;;8.80;7.50;;;;;;;15.57;68.17;99774.66;129944;1277;108961;-81
2022/09/25 11:09:12;;;;;;;10.00;8.10;;;;;;;15.62;67.72;99770.83;129829;1277;108723;-80
2022/09/25 11:12:23;;;;;;;7.80;6.50;;;;;;;15.68;67.35;99768.39;129779;1277;108822;-79
2022/09/25 11:15:28;;;;;;;8.70;7.30;;;;;;;15.79;67.28;99769.18;129791;1277;108920;-80
2022/09/25 11:18:40;;;;;;;9.10;7.80;;;;;;;15.93;67.21;99768.63;131600;1277;106961;-75
2022/09/25 11:21:58;;;;;;;9.00;7.00;;;;;;;16.06;66.91;99767.61;131858;1277;108798;-77
2022/09/25 11:25:11;;;;;;;10.00;7.40;;;;;;;16.13;67.20;99764.25;129791;1278;108672;-76
2022/09/25 11:28:32;;;;;;;7.30;6.50;;;;;;;16.24;67.09;99760.80;129631;1277;108683;-75
2022/09/25 11:31:42;;;;;;;7.30;6.60;;;;;;;16.42;66.83;99760.98;129970;1276;108751;-75
2022/09/25 11:35:20;;;;;;;8.60;6.80;;;;;;;16.59;66.29;99763.00;129921;1272;108648;-75
2022/09/25 11:42:02;;;;;;;8.80;7.10;;;;;;;17.02;64.68;99750.18;129661;1277;108752;-77
2022/09/25 11:45:16;;;;;;;7.80;6.30;;;;;;;17.13;65.14;99753.66;129676;1277;108832;-76
2022/09/25 11:48:31;;;;;;;7.90;7.10;;;;;;;17.33;65.16;99751.03;130012;1277;108642;-76
2022/09/25 11:52:01;;;;;;;7.00;6.20;;;;;;;17.46;64.55;99745.23;129765;1277;108975;-75
2022/09/25 11:55:33;;;;;;;6.90;6.20;;;;;;;17.55;64.49;99738.75;129556;1277;108704;-79
2022/09/25 11:58:45;;;;;;;;;;;;;;;17.55;64.36;99740.03;129899;1277;108852;-78
2022/09/25 12:01:57;;;;;;;5.30;4.80;;;;;;;17.51;64.30;99738.55;129788;1277;108470;-77
2022/09/25 12:05:24;;;;;;;6.20;5.60;;;;;;;17.45;64.18;99735.57;129606;1277;108731;-77
2022/09/25 12:08:47;;;;;;;7.00;5.60;;;;;;;17.39;64.21;99732.72;129698;1277;108954;-77
2022/09/25 12:12:06;;;;;;;6.50;5.60;;;;;;;17.34;63.95;99731.65;129612;1277;109713;-78
2022/09/25 12:15:19;;;;;;;6.00;5.20;;;;;;;17.27;63.64;99730.13;129601;1277;108720;-77
2022/09/25 12:18:52;;;;;;;6.10;5.40;;;;;;;17.21;63.52;99726.41;129583;1277;108784;-75
2022/09/25 12:22:03;;;;;;;6.10;5.00;;;;;;;17.11;63.51;99725.75;129565;1277;108626;-76
2022/09/25 12:25:15;;;;;;;;;;;;;;;16.99;63.37;99723.60;129791;1277;108626;-79
2022/09/25 12:28:29;;;;;;;5.80;5.20;;;;;;;16.89;63.20;99716.67;129486;1277;108728;-81
2022/09/25 12:31:51;;;;;;;6.50;5.90;;;;;;;16.81;63.10;99712.31;129444;1277;107018;-79
2022/09/25 12:35:25;;;;;;;6.40;5.70;;;;;;;16.74;62.89;99708.60;129958;1277;109008;-76
2022/09/25 12:38:38;;;;;;;7.10;5.60;;;;;;;16.65;62.61;99704.34;129411;1277;108730;-77
2022/09/25 12:41:50;;;;;;;6.10;5.50;;;;;;;16.65;61.45;99701.02;129669;1274;108680;-77
2022/09/25 12:45:01;;;;;;;7.70;5.90;;;;;;;16.61;61.02;99694.30;129858;1274;108541;-77
2022/09/25 12:48:14;;;;;;;6.90;6.10;;;;;;;16.59;61.44;99694.46;129937;1274;108769;-77
2022/09/25 12:51:26;;;;;;;7.20;6.20;;;;;;;16.61;61.25;99692.69;129881;1274;108652;-78
2022/09/25 12:54:37;;;;;;;7.30;6.50;;;;;;;16.63;60.49;99690.71;129887;1274;109205;-76
2022/09/25 12:57:49;;;;;;;9.50;6.50;;;;;;;16.63;59.85;99689.75;129955;1274;108548;-77
2022/09/25 13:01:02;;;;;;;8.90;6.70;;;;;;;16.65;59.88;99692.14;129950;1274;107833;-78
2022/09/25 13:04:34;;;;;;;7.70;6.30;;;;;;;16.64;59.59;99694.89;129872;1274;108775;-77
2022/09/25 13:07:49;;;;;;;7.60;6.20;;;;;;;16.62;60.57;99696.58;129875;1274;108559;-76
2022/09/25 13:10:59;;;;;;;10.80;7.10;;;;;;;16.56;60.30;99700.42;129706;1276;108431;-78
2022/09/25 13:14:11;;;;;;;6.30;5.70;;;;;;;16.54;60.79;99698.55;130037;1274;109777;-77
2022/09/25 13:17:16;;;;;;;6.70;5.70;;;;;;;16.61;61.14;99693.80;130007;1274;108642;-78
2022/09/25 13:20:46;;;;;;;7.00;6.10;;;;;;;16.68;60.58;99691.11;129899;1275;108878;-76
2022/09/25 13:23:54;;;;;;;7.50;6.10;;;;;;;16.71;60.78;99688.92;130044;1274;108698;-76
2022/09/25 13:27:03;;;;;;;6.90;5.90;;;;;;;16.76;60.27;99688.37;129877;1274;108563;-76
2022/09/25 13:30:22;;;;;;;7.50;5.90;;;;;;;16.77;60.27;99677.64;129984;1274;108687;-78
2022/09/25 13:33:28;;;;;;;7.10;6.10;;;;;;;16.77;60.30;99679.50;129952;1274;108680;-76
2022/09/25 13:36:38;;;;;;;7.10;6.10;;;;;;;16.76;60.17;99679.25;129979;1274;108919;-77
2022/09/25 13:43:21;;;;;;;6.50;5.80;;;;;;;16.81;60.26;99674.63;129723;1277;108833;-75
2022/09/25 13:46:30;;;;;;;11.00;6.40;;;;;;;16.86;60.34;99677.88;129879;1274;108980;-76
2022/09/25 13:49:36;;;;;;;8.30;6.30;;;;;;;16.94;60.10;99680.08;129937;1274;109000;-75
2022/09/25 13:53:19;;;;;;;8.00;6.20;;;;;;;16.99;59.80;99676.12;129795;1274;108749;-75
2022/09/25 13:56:48;;;;;;;6.90;6.20;;;;;;;17.02;59.95;99668.78;129982;1274;108586;-81
2022/09/25 14:00:05;;;;;;;7.30;6.60;;;;;;;17.02;59.94;99666.17;130163;1274;108667;-79
2022/09/25 14:03:31;;;;;;;6.50;5.90;;;;;;;17.03;59.33;99659.08;130160;1274;108947;-80
2022/09/25 14:06:40;;;;;;;6.10;5.50;;;;;;;17.04;59.39;99653.89;129974;1274;108832;-80
2022/09/25 14:09:50;;;;;;;5.80;5.20;;;;;;;17.05;59.71;99651.44;130105;1274;108727;-80
2022/09/25 14:12:56;;;;;;;9.10;5.80;;;;;;;17.04;59.70;99647.25;129973;1274;107985;-82
2022/09/25 14:16:03;;;;;;;6.20;5.40;;;;;;;17.01;59.47;99641.55;130247;1274;108672;-82
2022/09/25 14:19:16;;;;;;;6.70;5.80;;;;;;;17.00;59.58;99641.67;129890;1274;108640;-77
2022/09/25 14:22:43;;;;;;;6.40;5.80;;;;;;;16.98;59.62;99640.39;129838;1274;109849;-77
2022/09/25 14:25:56;;;;;;;7.10;5.90;;;;;;;16.96;59.68;99635.66;129901;1274;108773;-78
2022/09/25 14:29:01;;;;;;;7.10;6.10;;;;;;;16.96;59.54;99635.30;129880;1274;108623;-78
2022/09/25 14:32:18;;;;;;;6.70;5.70;;;;;;;16.98;59.65;99636.48;129974;1274;108154;-78
2022/09/25 14:35:35;;;;;;;6.70;6.10;;;;;;;17.02;59.38;99635.85;129995;1274;108880;-77
2022/09/25 14:38:55;;;;;;;7.00;5.50;;;;;;;17.04;58.93;99632.21;130008;1274;108800;-74
2022/09/25 14:42:31;;;;;;;5.80;5.20;;;;;;;17.05;58.82;99631.66;129795;1274;107131;-77
2022/09/25 14:45:52;;;;;;;6.60;6.00;;;;;;;17.06;58.89;99630.04;129779;1274;108842;-76
2022/09/25 14:49:02;;;;;;;6.30;5.70;;;;;;;17.07;59.09;99627.43;129830;1274;108942;-76